Time;durP1;ratioP1;P1;durP2;ratioP2;P2;SDS_P1;SDS_P2;PMS_P1;PMS_P2;Temp;Humidity;BMP_temperature;BMP_pressure;BME280_temperature;BME280_humidity;BME280_pressure;Samples;Min_cycle;Max_cycle;Signal;HPM_P1;HPM_P2
2021/12/02 00:00:48;;;;;;;50.87;33.73;;;;;;;;;;4985126;28;20923;-77
2021/12/02 00:03:15;;;;;;;56.00;34.90;;;;;;;;;;4982008;28;20879;-77
2021/12/02 00:05:41;;;;;;;43.03;31.10;;;;;;;;;;4991969;28;20428;-77
2021/12/02 00:08:07;;;;;;;47.73;32.50;;;;;;;;;;4976437;28;20500;-77
2021/12/02 00:10:35;;;;;;;48.40;32.77;;;;;;;;;;4991402;28;21080;-77
2021/12/02 00:13:01;;;;;;;52.93;33.93;;;;;;;;;;4980020;28;20430;-77
2021/12/02 00:23:36;;;;;;;52.97;33.87;;;;;;;;;;4977096;28;21247;-78
2021/12/02 00:26:03;;;;;;;53.33;35.17;;;;;;;;;;4991267;28;20439;-78
2021/12/02 00:28:30;;;;;;;45.00;31.97;;;;;;;;;;4978089;28;20459;-78
2021/12/02 00:30:58;;;;;;;53.80;35.97;;;;;;;;;;4985603;28;20431;-79
2021/12/02 00:33:28;;;;;;;50.33;34.53;;;;;;;;;;5001198;28;21033;-78
2021/12/02 00:35:55;;;;;;;59.27;39.07;;;;;;;;;;4991018;28;20424;-78
2021/12/02 00:38:22;;;;;;;55.53;37.43;;;;;;;;;;4978757;28;20954;-78
2021/12/02 00:40:49;;;;;;;44.77;32.73;;;;;;;;;;4975078;28;20440;-78
2021/12/02 00:43:16;;;;;;;43.87;32.10;;;;;;;;;;4978609;28;20428;-77
2021/12/02 00:45:43;;;;;;;43.23;32.97;;;;;;;;;;5006093;28;20425;-78
2021/12/02 00:48:09;;;;;;;48.23;32.93;;;;;;;;;;4990708;28;21684;-78
2021/12/02 00:50:37;;;;;;;44.00;31.93;;;;;;;;;;4976961;28;20432;-77
2021/12/02 00:53:04;;;;;;;43.40;31.43;;;;;;;;;;4991918;28;20428;-77
2021/12/02 00:55:30;;;;;;;47.93;33.97;;;;;;;;;;4975048;28;20487;-77
2021/12/02 00:57:57;;;;;;;46.47;33.10;;;;;;;;;;4973962;28;20443;-77
2021/12/02 01:00:23;;;;;;;45.77;32.07;;;;;;;;;;4978621;28;20425;-77
2021/12/02 01:02:50;;;;;;;38.37;29.53;;;;;;;;;;4974422;28;20463;-77
2021/12/02 01:05:16;;;;;;;52.20;35.60;;;;;;;;;;4979342;28;20511;-77
2021/12/02 01:07:43;;;;;;;47.27;33.83;;;;;;;;;;5012145;28;20464;-76
2021/12/02 01:10:09;;;;;;;43.73;31.37;;;;;;;;;;4990431;28;20536;-77
2021/12/02 01:12:36;;;;;;;51.43;35.30;;;;;;;;;;4964764;28;20432;-77
2021/12/02 01:15:03;;;;;;;50.03;35.83;;;;;;;;;;5003391;28;21522;-77
2021/12/02 01:17:29;;;;;;;47.53;34.50;;;;;;;;;;4973245;28;20439;-77
2021/12/02 01:19:56;;;;;;;51.97;36.47;;;;;;;;;;4982852;28;20413;-77
2021/12/02 01:22:23;;;;;;;55.77;39.13;;;;;;;;;;4972304;28;21246;-77
2021/12/02 01:24:49;;;;;;;48.00;35.57;;;;;;;;;;4972781;28;20426;-77
2021/12/02 01:27:16;;;;;;;59.23;42.53;;;;;;;;;;4971702;28;20563;-77
2021/12/02 01:29:42;;;;;;;63.53;41.40;;;;;;;;;;4983322;28;20431;-77
2021/12/02 01:32:11;;;;;;;53.57;38.90;;;;;;;;;;4969445;28;20450;-77
2021/12/02 01:34:37;;;;;;;68.57;42.53;;;;;;;;;;4972096;28;20417;-77
2021/12/02 01:37:04;;;;;;;57.63;38.47;;;;;;;;;;4983919;28;20421;-78
2021/12/02 01:39:30;;;;;;;64.00;43.67;;;;;;;;;;4985031;28;20427;-78
2021/12/02 01:41:58;;;;;;;53.73;38.70;;;;;;;;;;4985214;28;20442;-77
2021/12/02 01:44:25;;;;;;;70.13;44.67;;;;;;;;;;4966579;28;21481;-77
2021/12/02 01:46:53;;;;;;;57.67;40.10;;;;;;;;;;4982499;28;20440;-77
2021/12/02 01:49:22;;;;;;;58.37;40.83;;;;;;;;;;4982167;28;20472;-77
2021/12/02 01:51:50;;;;;;;62.17;42.70;;;;;;;;;;4972414;28;20423;-77
2021/12/02 01:54:18;;;;;;;55.63;39.63;;;;;;;;;;4982281;28;20432;-77
2021/12/02 01:56:48;;;;;;;54.47;37.80;;;;;;;;;;4997262;28;21210;-77
2021/12/02 01:59:16;;;;;;;72.73;45.70;;;;;;;;;;4969061;28;20821;-77
2021/12/02 02:01:43;;;;;;;65.90;44.50;;;;;;;;;;4984984;28;20530;-77
2021/12/02 02:04:10;;;;;;;68.17;44.73;;;;;;;;;;4983966;28;20430;-77
2021/12/02 02:06:51;;;;;;;69.47;47.13;;;;;;;;;;5000859;28;20433;-77
2021/12/02 02:09:17;;;;;;;68.23;43.97;;;;;;;;;;4981447;28;20417;-77
2021/12/02 02:11:43;;;;;;;52.37;38.60;;;;;;;;;;4984836;28;20436;-77
2021/12/02 02:14:10;;;;;;;56.53;39.27;;;;;;;;;;4954421;28;20408;-78
2021/12/02 02:16:38;;;;;;;69.10;46.23;;;;;;;;;;4980779;28;20456;-77
2021/12/02 02:19:05;;;;;;;72.97;48.73;;;;;;;;;;4969098;28;20460;-77
2021/12/02 02:21:34;;;;;;;61.23;43.43;;;;;;;;;;4966687;28;20607;-77
2021/12/02 02:24:01;;;;;;;73.13;50.23;;;;;;;;;;4996628;28;20425;-77
2021/12/02 02:26:30;;;;;;;73.43;49.87;;;;;;;;;;4966034;28;20451;-77
2021/12/02 02:28:57;;;;;;;79.60;52.40;;;;;;;;;;4984096;28;20459;-77
2021/12/02 02:31:23;;;;;;;78.13;52.60;;;;;;;;;;4967604;28;21449;-77
2021/12/02 02:33:50;;;;;;;79.07;53.37;;;;;;;;;;4972261;28;20459;-77
2021/12/02 02:36:17;;;;;;;81.70;53.33;;;;;;;;;;4964530;28;20547;-77
2021/12/02 02:38:53;;;;;;;81.17;51.90;;;;;;;;;;4966045;28;20448;-77
2021/12/02 02:41:21;;;;;;;79.50;50.97;;;;;;;;;;4967519;28;20499;-77
2021/12/02 02:43:48;;;;;;;78.97;52.07;;;;;;;;;;4981723;28;21207;-77
2021/12/02 02:46:22;;;;;;;66.27;44.83;;;;;;;;;;4980560;28;20429;-78
2021/12/02 02:48:48;;;;;;;66.30;44.17;;;;;;;;;;4981573;28;20567;-77
2021/12/02 02:51:14;;;;;;;55.70;38.87;;;;;;;;;;4968708;28;20428;-77
2021/12/02 02:53:40;;;;;;;65.73;43.10;;;;;;;;;;4966111;28;20437;-77
2021/12/02 02:56:13;;;;;;;61.30;42.70;;;;;;;;;;4980881;28;20432;-76
2021/12/02 03:04:37;;;;;;;71.03;46.90;;;;;;;;;;4970799;28;20424;-76
2021/12/02 03:06:56;;;;;;;59.17;41.00;;;;;;;;;;4960762;28;21095;-76
2021/12/02 03:17:28;;;;;;;71.80;48.37;;;;;;;;;;4961403;28;20436;-76
2021/12/02 03:19:54;;;;;;;68.40;46.47;;;;;;;;;;4965830;28;20475;-76
2021/12/02 03:22:20;;;;;;;62.73;44.60;;;;;;;;;;4968327;28;20431;-76
2021/12/02 03:24:46;;;;;;;58.37;40.43;;;;;;;;;;4979212;28;20425;-76
2021/12/02 03:27:13;;;;;;;66.17;45.00;;;;;;;;;;4967599;28;20467;-76
2021/12/02 03:29:40;;;;;;;67.67;47.50;;;;;;;;;;4966844;28;20495;-76
2021/12/02 03:32:06;;;;;;;77.00;51.13;;;;;;;;;;4978113;28;20421;-76
2021/12/02 03:34:33;;;;;;;65.23;44.50;;;;;;;;;;5000249;28;20409;-76
2021/12/02 03:36:59;;;;;;;70.63;46.77;;;;;;;;;;4984136;28;20408;-77
2021/12/02 03:39:26;;;;;;;70.53;49.20;;;;;;;;;;4968538;28;20420;-77
2021/12/02 03:41:52;;;;;;;70.63;46.93;;;;;;;;;;4980020;28;20441;-77
2021/12/02 03:44:18;;;;;;;67.13;47.30;;;;;;;;;;4981598;28;20433;-77
2021/12/02 03:46:45;;;;;;;74.80;47.77;;;;;;;;;;4982180;28;20496;-77
2021/12/02 03:49:11;;;;;;;86.93;54.83;;;;;;;;;;4979529;28;21241;-78
2021/12/02 03:51:38;;;;;;;59.17;42.70;;;;;;;;;;4980379;28;20432;-77
2021/12/02 03:54:04;;;;;;;70.73;47.47;;;;;;;;;;4967187;28;21225;-77
2021/12/02 03:56:31;;;;;;;70.30;47.93;;;;;;;;;;4981676;28;20430;-78
2021/12/02 03:58:57;;;;;;;77.43;51.60;;;;;;;;;;4981555;28;20532;-77
2021/12/02 04:01:23;;;;;;;80.20;52.13;;;;;;;;;;4967076;28;21435;-78
2021/12/02 04:03:50;;;;;;;69.93;45.77;;;;;;;;;;4964466;28;20441;-76
2021/12/02 04:06:16;;;;;;;59.50;42.90;;;;;;;;;;4977767;28;21309;-77
2021/12/02 04:08:45;;;;;;;63.70;45.00;;;;;;;;;;4964167;28;20463;-77
2021/12/02 04:13:45;;;;;;;58.77;42.73;;;;;;;;;;4968812;28;20448;-77
2021/12/02 04:16:16;;;;;;;58.00;42.90;;;;;;;;;;4982627;28;20872;-77
2021/12/02 04:18:43;;;;;;;69.97;47.37;;;;;;;;;;4978296;28;20424;-77
2021/12/02 04:21:09;;;;;;;57.97;40.57;;;;;;;;;;4965093;28;20432;-77
2021/12/02 04:23:35;;;;;;;52.87;38.23;;;;;;;;;;4961573;28;20445;-77
2021/12/02 04:26:01;;;;;;;73.27;48.23;;;;;;;;;;4963305;28;20437;-77
2021/12/02 04:28:27;;;;;;;75.47;51.27;;;;;;;;;;4965365;28;20452;-77
2021/12/02 04:30:53;;;;;;;84.27;53.10;;;;;;;;;;4980643;28;21288;-77
2021/12/02 04:33:20;;;;;;;75.03;48.30;;;;;;;;;;4978700;28;20467;-77
2021/12/02 04:35:46;;;;;;;76.70;50.77;;;;;;;;;;4957289;28;20432;-77
2021/12/02 04:38:12;;;;;;;71.33;48.17;;;;;;;;;;4963924;28;21234;-77
2021/12/02 04:40:41;;;;;;;67.00;46.43;;;;;;;;;;4997388;28;22548;-77
2021/12/02 04:43:07;;;;;;;70.30;47.17;;;;;;;;;;4964406;28;20439;-77
2021/12/02 04:45:33;;;;;;;61.90;43.97;;;;;;;;;;4979104;28;20440;-77
2021/12/02 04:47:59;;;;;;;68.50;46.73;;;;;;;;;;4983024;28;20475;-79
2021/12/02 04:50:25;;;;;;;58.83;41.60;;;;;;;;;;4987491;28;20523;-78
2021/12/02 04:52:53;;;;;;;54.33;39.07;;;;;;;;;;4971785;28;20428;-77
2021/12/02 04:55:20;;;;;;;64.63;44.60;;;;;;;;;;4983641;28;20450;-77
2021/12/02 04:57:46;;;;;;;57.37;42.20;;;;;;;;;;4967152;28;21279;-77
2021/12/02 05:00:13;;;;;;;64.27;45.50;;;;;;;;;;4980884;28;20415;-77
2021/12/02 05:02:40;;;;;;;70.87;48.17;;;;;;;;;;4967699;28;21473;-77
2021/12/02 05:05:07;;;;;;;84.03;53.93;;;;;;;;;;4997185;28;20409;-76
2021/12/02 05:07:33;;;;;;;91.80;58.23;;;;;;;;;;4996095;28;20456;-77
2021/12/02 05:09:59;;;;;;;107.20;64.57;;;;;;;;;;4968826;28;21317;-76
2021/12/02 05:12:25;;;;;;;77.57;53.70;;;;;;;;;;4980681;28;20413;-77
2021/12/02 05:14:51;;;;;;;85.20;57.00;;;;;;;;;;4978479;28;20523;-77
2021/12/02 05:17:17;;;;;;;97.03;62.70;;;;;;;;;;4966832;28;21407;-77
2021/12/02 05:19:43;;;;;;;79.47;53.70;;;;;;;;;;4966930;28;20889;-77
2021/12/02 05:22:10;;;;;;;77.07;54.17;;;;;;;;;;4966947;28;20535;-77
2021/12/02 05:24:36;;;;;;;101.83;62.70;;;;;;;;;;4967456;28;20431;-77
2021/12/02 05:27:02;;;;;;;74.80;52.97;;;;;;;;;;4964782;28;20438;-76
2021/12/02 05:29:28;;;;;;;77.93;54.00;;;;;;;;;;4966181;28;21205;-76
2021/12/02 05:31:54;;;;;;;92.90;60.50;;;;;;;;;;4966484;28;20413;-76
2021/12/02 05:34:20;;;;;;;81.93;51.97;;;;;;;;;;4969936;28;20449;-76
2021/12/02 05:36:46;;;;;;;80.93;52.87;;;;;;;;;;4976370;28;20957;-76
2021/12/02 05:39:13;;;;;;;62.60;45.37;;;;;;;;;;4980958;28;20428;-76
2021/12/02 05:41:39;;;;;;;86.60;55.40;;;;;;;;;;4961803;28;20443;-77
2021/12/02 05:44:05;;;;;;;58.77;44.17;;;;;;;;;;4980092;28;20517;-76
2021/12/02 05:46:31;;;;;;;61.37;43.43;;;;;;;;;;4978461;28;20503;-77
2021/12/02 05:48:58;;;;;;;54.57;39.20;;;;;;;;;;4964797;28;20449;-77
2021/12/02 05:51:24;;;;;;;49.93;36.40;;;;;;;;;;4966745;28;21385;-77
2021/12/02 05:53:50;;;;;;;59.33;41.83;;;;;;;;;;4999937;28;20463;-78
2021/12/02 05:56:16;;;;;;;47.13;33.93;;;;;;;;;;4977915;28;20435;-77
2021/12/02 05:58:42;;;;;;;47.57;33.50;;;;;;;;;;4982592;28;20914;-78
2021/12/02 06:01:08;;;;;;;49.80;35.03;;;;;;;;;;4994298;28;20524;-77
2021/12/02 06:03:36;;;;;;;50.67;36.20;;;;;;;;;;4983476;28;20443;-77
2021/12/02 06:06:03;;;;;;;60.93;41.80;;;;;;;;;;4982867;28;20424;-77
2021/12/02 06:08:29;;;;;;;61.47;42.00;;;;;;;;;;4981765;28;20448;-77
2021/12/02 06:10:56;;;;;;;48.57;35.40;;;;;;;;;;4985511;28;20421;-78
2021/12/02 06:13:22;;;;;;;54.63;40.13;;;;;;;;;;4981644;28;20460;-78
2021/12/02 06:15:48;;;;;;;55.93;39.60;;;;;;;;;;4978975;28;20431;-78
2021/12/02 06:18:14;;;;;;;46.70;35.23;;;;;;;;;;4981101;28;20456;-77
2021/12/02 06:20:40;;;;;;;42.30;32.80;;;;;;;;;;4975138;28;22428;-78
2021/12/02 06:23:06;;;;;;;47.73;34.67;;;;;;;;;;4978578;28;20440;-78
2021/12/02 06:27:58;;;;;;;44.73;33.77;;;;;;;;;;4978707;28;20566;-78
2021/12/02 06:30:25;;;;;;;52.97;38.77;;;;;;;;;;4979247;28;20424;-79
2021/12/02 06:32:52;;;;;;;51.30;36.67;;;;;;;;;;4993035;28;20454;-78
2021/12/02 06:35:18;;;;;;;50.63;36.87;;;;;;;;;;4983130;28;20467;-79
2021/12/02 06:37:47;;;;;;;59.73;42.73;;;;;;;;;;4985750;28;21345;-78
2021/12/02 06:40:14;;;;;;;53.90;39.53;;;;;;;;;;4984701;28;20413;-79
2021/12/02 06:42:41;;;;;;;42.67;32.93;;;;;;;;;;4981584;28;20434;-78
2021/12/02 06:45:08;;;;;;;54.10;37.70;;;;;;;;;;4993097;28;20502;-78
2021/12/02 06:47:41;;;;;;;54.80;39.17;;;;;;;;;;4992777;28;20472;-78
2021/12/02 06:50:09;;;;;;;51.57;38.27;;;;;;;;;;4979303;28;20405;-78
2021/12/02 06:52:36;;;;;;;45.37;33.63;;;;;;;;;;4978403;28;20417;-78
2021/12/02 06:55:02;;;;;;;43.80;33.43;;;;;;;;;;4990143;28;20417;-79
2021/12/02 06:57:28;;;;;;;61.10;41.60;;;;;;;;;;4978208;28;21356;-78
2021/12/02 06:59:55;;;;;;;64.40;46.10;;;;;;;;;;5000226;28;20495;-79
2021/12/02 07:02:21;;;;;;;70.20;47.43;;;;;;;;;;4987535;28;20440;-79
2021/12/02 07:04:50;;;;;;;50.43;38.03;;;;;;;;;;4998370;28;21504;-79
2021/12/02 07:07:16;;;;;;;53.97;40.23;;;;;;;;;;4982411;28;20805;-79
2021/12/02 07:09:42;;;;;;;70.00;48.53;;;;;;;;;;4983584;28;20417;-79
2021/12/02 07:12:08;;;;;;;50.70;39.17;;;;;;;;;;4983007;28;20503;-79
2021/12/02 07:14:35;;;;;;;56.37;40.63;;;;;;;;;;4982387;28;20421;-79
2021/12/02 07:17:01;;;;;;;49.90;37.07;;;;;;;;;;4978900;28;20476;-79
2021/12/02 07:19:27;;;;;;;61.43;43.73;;;;;;;;;;4981889;28;20429;-79
2021/12/02 07:21:53;;;;;;;61.67;43.30;;;;;;;;;;4996304;28;20624;-79
2021/12/02 07:24:19;;;;;;;54.17;40.53;;;;;;;;;;4997723;28;20416;-79
2021/12/02 07:26:46;;;;;;;67.30;47.83;;;;;;;;;;4978464;28;20692;-79
2021/12/02 07:29:13;;;;;;;61.00;44.13;;;;;;;;;;4997489;28;20467;-79
2021/12/02 07:31:40;;;;;;;50.43;36.83;;;;;;;;;;4997175;28;20417;-79
2021/12/02 07:34:07;;;;;;;42.50;32.57;;;;;;;;;;4980127;28;20416;-79
2021/12/02 07:36:34;;;;;;;43.47;32.43;;;;;;;;;;4975827;28;20575;-79
2021/12/02 07:39:03;;;;;;;42.60;32.13;;;;;;;;;;4993714;28;20419;-78
2021/12/02 07:41:29;;;;;;;34.53;26.73;;;;;;;;;;4980630;28;20440;-78
2021/12/02 07:43:55;;;;;;;30.47;23.67;;;;;;;;;;4979951;28;20436;-78
2021/12/02 07:46:21;;;;;;;32.03;24.63;;;;;;;;;;4977555;28;20426;-79
2021/12/02 07:48:48;;;;;;;30.83;24.20;;;;;;;;;;4979653;28;20456;-78
2021/12/02 07:51:16;;;;;;;32.77;25.63;;;;;;;;;;4993303;28;21182;-78
2021/12/02 07:53:43;;;;;;;32.77;25.63;;;;;;;;;;4978769;28;20424;-78
2021/12/02 07:56:11;;;;;;;27.20;22.23;;;;;;;;;;4993928;28;20531;-78
2021/12/02 07:58:41;;;;;;;26.87;21.70;;;;;;;;;;4977682;28;20424;-78
2021/12/02 08:01:07;;;;;;;34.73;26.47;;;;;;;;;;4978495;28;20451;-78
2021/12/02 08:03:34;;;;;;;32.57;23.33;;;;;;;;;;4981367;28;20424;-78
2021/12/02 08:06:00;;;;;;;25.63;20.70;;;;;;;;;;4980880;28;20527;-78
2021/12/02 08:08:26;;;;;;;23.77;20.13;;;;;;;;;;4978149;28;21069;-78
2021/12/02 08:10:52;;;;;;;31.27;25.73;;;;;;;;;;4979956;28;20532;-78
2021/12/02 08:13:19;;;;;;;30.37;22.43;;;;;;;;;;5007263;28;20417;-78
2021/12/02 08:15:45;;;;;;;35.97;28.17;;;;;;;;;;4979739;28;20429;-78
2021/12/02 08:18:12;;;;;;;44.23;30.40;;;;;;;;;;4978122;28;20429;-78
2021/12/02 08:20:38;;;;;;;34.03;25.77;;;;;;;;;;4975561;28;20437;-78
2021/12/02 08:23:10;;;;;;;45.93;32.07;;;;;;;;;;4978483;28;21102;-78
2021/12/02 08:25:36;;;;;;;40.37;28.87;;;;;;;;;;4981525;28;20507;-79
2021/12/02 08:28:03;;;;;;;42.70;30.40;;;;;;;;;;4978883;28;20461;-78
2021/12/02 08:30:34;;;;;;;41.17;30.27;;;;;;;;;;4994557;28;20523;-78
2021/12/02 08:33:01;;;;;;;40.80;31.00;;;;;;;;;;4979222;28;20444;-78
2021/12/02 08:35:28;;;;;;;35.17;27.37;;;;;;;;;;4980270;28;21200;-78
2021/12/02 08:37:59;;;;;;;37.50;28.83;;;;;;;;;;4977593;28;20434;-78
2021/12/02 08:40:37;;;;;;;36.93;28.70;;;;;;;;;;4992040;28;21282;-78
2021/12/02 08:43:04;;;;;;;37.30;28.90;;;;;;;;;;4992721;28;20408;-78
2021/12/02 08:45:31;;;;;;;51.53;36.90;;;;;;;;;;4976318;28;20420;-78
2021/12/02 08:47:58;;;;;;;41.40;30.00;;;;;;;;;;4991653;28;20452;-78
2021/12/02 08:50:25;;;;;;;47.77;34.90;;;;;;;;;;4975380;28;20417;-79
2021/12/02 08:52:52;;;;;;;40.03;30.00;;;;;;;;;;4978493;28;21098;-78
2021/12/02 08:55:19;;;;;;;40.53;28.50;;;;;;;;;;4991675;28;20491;-79
2021/12/02 08:57:45;;;;;;;37.30;27.80;;;;;;;;;;4978286;28;20413;-78
2021/12/02 09:00:13;;;;;;;40.43;30.17;;;;;;;;;;4976957;28;20411;-78
2021/12/02 09:02:39;;;;;;;41.80;31.43;;;;;;;;;;4971438;28;20416;-78
2021/12/02 09:05:06;;;;;;;52.17;35.33;;;;;;;;;;4976613;28;20416;-78
2021/12/02 09:07:32;;;;;;;48.53;35.43;;;;;;;;;;4976827;28;20448;-78
2021/12/02 09:09:59;;;;;;;42.40;32.20;;;;;;;;;;4975460;28;20428;-78
2021/12/02 09:12:25;;;;;;;41.37;31.13;;;;;;;;;;4990844;28;20496;-78
2021/12/02 09:14:51;;;;;;;47.93;33.63;;;;;;;;;;4991567;28;20457;-78
2021/12/02 09:17:18;;;;;;;43.83;31.47;;;;;;;;;;4993597;28;20467;-78
2021/12/02 09:19:44;;;;;;;49.17;35.73;;;;;;;;;;4991602;28;20428;-78
2021/12/02 09:22:10;;;;;;;46.90;34.97;;;;;;;;;;4989847;28;20408;-79
2021/12/02 09:24:39;;;;;;;46.83;34.30;;;;;;;;;;4978657;28;20420;-78
2021/12/02 09:27:05;;;;;;;55.10;37.67;;;;;;;;;;4979841;28;20444;-78
2021/12/02 09:29:31;;;;;;;57.83;41.80;;;;;;;;;;4981220;28;20452;-78
2021/12/02 09:31:57;;;;;;;59.23;41.73;;;;;;;;;;4981202;28;20408;-78
2021/12/02 09:34:25;;;;;;;54.87;40.63;;;;;;;;;;4993191;28;20413;-78
2021/12/02 09:36:51;;;;;;;61.50;43.23;;;;;;;;;;4979200;28;20527;-79
2021/12/02 09:39:18;;;;;;;67.63;48.07;;;;;;;;;;4995743;28;20487;-78
2021/12/02 09:41:47;;;;;;;76.37;51.30;;;;;;;;;;5007795;28;21575;-78
2021/12/02 09:44:14;;;;;;;59.33;42.73;;;;;;;;;;4995236;28;20538;-78
2021/12/02 09:46:41;;;;;;;71.87;49.10;;;;;;;;;;5010249;28;20421;-78
2021/12/02 09:49:08;;;;;;;73.93;51.27;;;;;;;;;;5010264;28;20475;-78
2021/12/02 09:51:46;;;;;;;68.33;47.60;;;;;;;;;;4982462;28;20490;-78
2021/12/02 09:54:18;;;;;;;74.97;49.83;;;;;;;;;;4979621;28;20400;-78
2021/12/02 09:56:48;;;;;;;62.70;44.60;;;;;;;;;;4995499;28;20424;-78
2021/12/02 10:01:54;;;;;;;71.97;50.43;;;;;;;;;;4979363;28;20417;-78
2021/12/02 10:04:22;;;;;;;69.87;48.20;;;;;;;;;;4980793;28;20396;-78
2021/12/02 10:06:49;;;;;;;67.63;45.97;;;;;;;;;;4981830;28;20424;-78
2021/12/02 10:09:40;;;;;;;72.10;49.33;;;;;;;;;;4996490;28;20475;-78
2021/12/02 10:12:19;;;;;;;66.70;47.37;;;;;;;;;;4996147;28;20762;-78
2021/12/02 10:14:57;;;;;;;69.47;47.27;;;;;;;;;;4981080;28;20477;-78
2021/12/02 10:17:39;;;;;;;68.43;46.53;;;;;;;;;;4979935;28;20532;-78
2021/12/02 10:22:37;;;;;;;67.63;47.33;;;;;;;;;;4981917;28;20507;-77
2021/12/02 10:25:04;;;;;;;71.93;48.23;;;;;;;;;;5009971;28;20425;-78
2021/12/02 10:27:30;;;;;;;72.47;49.00;;;;;;;;;;4980040;28;20417;-78
2021/12/02 10:29:56;;;;;;;67.37;45.93;;;;;;;;;;4977358;28;20413;-78
2021/12/02 10:32:25;;;;;;;63.37;43.20;;;;;;;;;;4980772;28;20993;-77
2021/12/02 10:34:53;;;;;;;59.03;41.87;;;;;;;;;;4981636;28;20475;-77
2021/12/02 10:37:20;;;;;;;58.90;41.80;;;;;;;;;;4975554;28;21290;-78
2021/12/02 10:40:03;;;;;;;52.33;38.27;;;;;;;;;;4994017;28;20550;-78
2021/12/02 10:42:30;;;;;;;57.33;40.53;;;;;;;;;;4982405;28;21192;-78
2021/12/02 10:45:04;;;;;;;53.77;39.90;;;;;;;;;;4978641;28;20420;-78
2021/12/02 10:47:31;;;;;;;59.33;41.03;;;;;;;;;;4979652;28;20416;-77
2021/12/02 10:50:01;;;;;;;57.63;41.77;;;;;;;;;;4982709;28;20427;-78
2021/12/02 10:52:28;;;;;;;61.40;44.47;;;;;;;;;;4981762;28;20417;-78
2021/12/02 10:55:09;;;;;;;56.23;39.10;;;;;;;;;;4977586;28;20423;-78
2021/12/02 10:57:40;;;;;;;53.10;40.00;;;;;;;;;;4978435;28;20435;-78
2021/12/02 11:00:14;;;;;;;57.40;41.07;;;;;;;;;;4980097;28;20424;-77
2021/12/02 11:02:47;;;;;;;53.87;38.00;;;;;;;;;;4994686;28;20429;-77
2021/12/02 11:05:23;;;;;;;52.27;37.80;;;;;;;;;;4995081;28;20444;-78
2021/12/02 11:07:53;;;;;;;47.47;35.20;;;;;;;;;;4979606;28;20488;-78
2021/12/02 11:10:19;;;;;;;50.90;37.60;;;;;;;;;;5007777;28;20420;-78
2021/12/02 11:12:48;;;;;;;53.90;40.10;;;;;;;;;;4996123;28;21250;-78
2021/12/02 11:15:14;;;;;;;50.60;37.70;;;;;;;;;;4981425;28;21237;-77
2021/12/02 11:17:42;;;;;;;53.67;38.27;;;;;;;;;;4979469;28;20531;-78
2021/12/02 11:20:09;;;;;;;51.90;38.97;;;;;;;;;;5007186;28;20427;-78
2021/12/02 11:22:35;;;;;;;52.63;39.07;;;;;;;;;;4968318;28;21272;-78
2021/12/02 11:25:02;;;;;;;56.47;41.63;;;;;;;;;;4995763;28;20425;-78
2021/12/02 11:27:31;;;;;;;59.07;41.63;;;;;;;;;;4995517;28;20440;-78
2021/12/02 11:29:59;;;;;;;53.77;38.87;;;;;;;;;;4978265;28;20415;-77
2021/12/02 11:32:25;;;;;;;59.83;43.27;;;;;;;;;;4991538;28;20504;-77
2021/12/02 11:35:03;;;;;;;60.83;42.17;;;;;;;;;;4980530;28;20423;-78
2021/12/02 11:37:29;;;;;;;61.53;43.97;;;;;;;;;;4993459;28;20415;-78
2021/12/02 11:39:57;;;;;;;55.43;40.13;;;;;;;;;;5008683;28;21399;-78
2021/12/02 11:42:23;;;;;;;58.50;41.33;;;;;;;;;;4995311;28;20430;-79
2021/12/02 11:44:49;;;;;;;56.60;40.90;;;;;;;;;;4994194;28;20507;-78
2021/12/02 11:47:16;;;;;;;64.43;45.00;;;;;;;;;;4976384;28;20409;-78
2021/12/02 11:49:43;;;;;;;59.43;42.33;;;;;;;;;;4988305;28;20440;-78
2021/12/02 11:52:09;;;;;;;67.27;46.80;;;;;;;;;;4976551;28;20424;-77
2021/12/02 11:54:36;;;;;;;64.40;45.30;;;;;;;;;;4972725;28;21304;-77
2021/12/02 11:57:02;;;;;;;56.03;41.73;;;;;;;;;;4977780;28;20431;-78
2021/12/02 11:59:29;;;;;;;69.13;48.73;;;;;;;;;;4993419;28;21078;-78
2021/12/02 12:01:55;;;;;;;56.07;42.30;;;;;;;;;;4973351;28;20437;-78
2021/12/02 12:04:22;;;;;;;59.30;43.80;;;;;;;;;;4974281;28;20431;-79
2021/12/02 12:06:53;;;;;;;56.73;40.27;;;;;;;;;;4973927;28;20432;-77
2021/12/02 12:09:21;;;;;;;59.33;42.87;;;;;;;;;;4979444;28;20506;-77
2021/12/02 12:11:48;;;;;;;57.00;41.17;;;;;;;;;;4975972;28;21176;-77
2021/12/02 12:14:19;;;;;;;63.37;45.10;;;;;;;;;;4975019;28;21332;-77
2021/12/02 12:16:49;;;;;;;60.00;43.97;;;;;;;;;;4970695;28;20425;-77
2021/12/02 12:19:27;;;;;;;62.10;43.17;;;;;;;;;;4974648;28;20850;-77
2021/12/02 12:21:55;;;;;;;62.87;44.87;;;;;;;;;;4973512;28;21198;-78
2021/12/02 12:24:38;;;;;;;53.50;39.77;;;;;;;;;;4975506;28;20396;-77
2021/12/02 12:27:11;;;;;;;54.87;41.97;;;;;;;;;;4990930;28;20421;-77
2021/12/02 12:29:37;;;;;;;54.90;40.40;;;;;;;;;;5006706;28;20457;-77
2021/12/02 12:35:22;;;;;;;60.13;42.93;;;;;;;;;;4936388;28;20516;-76
2021/12/02 12:37:49;;;;;;;59.00;43.23;;;;;;;;;;4924703;28;21268;-76
2021/12/02 12:40:21;;;;;;;59.93;42.73;;;;;;;;;;4947157;28;20428;-76
2021/12/02 12:42:49;;;;;;;62.37;44.90;;;;;;;;;;4979498;28;20417;-76
2021/12/02 12:45:29;;;;;;;57.90;43.73;;;;;;;;;;4988558;28;20455;-76
2021/12/02 12:47:58;;;;;;;51.13;37.63;;;;;;;;;;4975474;28;20547;-77
2021/12/02 12:50:27;;;;;;;58.60;41.10;;;;;;;;;;4974782;28;20732;-78
2021/12/02 12:53:05;;;;;;;51.00;38.90;;;;;;;;;;4979872;28;20420;-77
2021/12/02 12:55:33;;;;;;;57.57;42.20;;;;;;;;;;4979938;28;20412;-78
2021/12/02 12:58:14;;;;;;;50.43;37.27;;;;;;;;;;4975050;28;20555;-77
2021/12/02 13:00:43;;;;;;;50.67;37.90;;;;;;;;;;4991390;28;20528;-77
2021/12/02 13:03:11;;;;;;;52.43;37.80;;;;;;;;;;4979043;28;21061;-77
2021/12/02 13:05:51;;;;;;;50.43;35.93;;;;;;;;;;4978315;28;20432;-77
2021/12/02 13:08:19;;;;;;;48.73;36.47;;;;;;;;;;4980421;28;20479;-77
2021/12/02 13:10:49;;;;;;;51.47;38.23;;;;;;;;;;4977432;28;20417;-77
2021/12/02 13:13:24;;;;;;;55.13;40.40;;;;;;;;;;4991959;28;20486;-76
2021/12/02 13:15:50;;;;;;;49.73;37.47;;;;;;;;;;4977014;28;20423;-77
2021/12/02 13:18:30;;;;;;;57.73;42.40;;;;;;;;;;4971985;28;20416;-77
2021/12/02 13:20:56;;;;;;;60.17;43.87;;;;;;;;;;4980202;28;20419;-76
2021/12/02 13:23:25;;;;;;;59.83;44.60;;;;;;;;;;4977932;28;20424;-77
2021/12/02 13:25:54;;;;;;;54.23;39.03;;;;;;;;;;4991233;28;20438;-77
2021/12/02 13:28:20;;;;;;;57.67;41.10;;;;;;;;;;4977482;28;20454;-77
2021/12/02 13:30:51;;;;;;;59.47;42.33;;;;;;;;;;4978865;28;20503;-77
2021/12/02 13:33:17;;;;;;;60.07;45.00;;;;;;;;;;4977064;28;21202;-77
2021/12/02 13:35:43;;;;;;;54.23;41.00;;;;;;;;;;4977251;28;20443;-76
2021/12/02 13:38:10;;;;;;;58.13;42.43;;;;;;;;;;4990122;28;21209;-76
2021/12/02 13:40:37;;;;;;;63.63;44.17;;;;;;;;;;4993230;28;20440;-76
2021/12/02 13:43:04;;;;;;;62.93;44.30;;;;;;;;;;4978801;28;20439;-77
2021/12/02 13:45:31;;;;;;;63.43;44.43;;;;;;;;;;4978057;28;21238;-76
2021/12/02 13:48:13;;;;;;;64.97;46.23;;;;;;;;;;4977115;28;20538;-76
2021/12/02 13:50:42;;;;;;;64.07;45.73;;;;;;;;;;4979781;28;21550;-76
2021/12/02 13:53:09;;;;;;;67.77;48.50;;;;;;;;;;4978095;28;20424;-77
2021/12/02 13:55:37;;;;;;;60.23;42.83;;;;;;;;;;4975318;28;21244;-77
2021/12/02 13:58:07;;;;;;;63.17;43.53;;;;;;;;;;4974666;28;21363;-77
2021/12/02 14:00:35;;;;;;;64.13;46.50;;;;;;;;;;4979432;28;20530;-77
2021/12/02 14:03:20;;;;;;;61.83;44.00;;;;;;;;;;4997776;28;20510;-77
2021/12/02 14:05:47;;;;;;;68.60;46.03;;;;;;;;;;4977001;28;20491;-76
2021/12/02 14:08:15;;;;;;;72.03;49.43;;;;;;;;;;4976631;28;20454;-76
2021/12/02 14:10:41;;;;;;;61.17;43.43;;;;;;;;;;4998005;28;20574;-76
2021/12/02 14:13:12;;;;;;;65.33;46.07;;;;;;;;;;4980801;28;20527;-76
2021/12/02 14:15:39;;;;;;;75.77;50.87;;;;;;;;;;4978656;28;20435;-76
2021/12/02 14:18:08;;;;;;;64.63;46.67;;;;;;;;;;4978242;28;20424;-77
2021/12/02 14:20:35;;;;;;;73.73;50.73;;;;;;;;;;4981155;28;20453;-76
2021/12/02 14:23:06;;;;;;;79.43;52.83;;;;;;;;;;4982317;28;20483;-77
2021/12/02 14:25:33;;;;;;;65.03;46.33;;;;;;;;;;4980103;28;20414;-77
2021/12/02 14:28:26;;;;;;;73.87;47.73;;;;;;;;;;4980412;28;20940;-77
2021/12/02 14:30:52;;;;;;;70.70;47.27;;;;;;;;;;4973475;28;20531;-77
2021/12/02 14:33:23;;;;;;;76.00;50.23;;;;;;;;;;4981910;28;20408;-77
2021/12/02 14:36:07;;;;;;;72.23;50.87;;;;;;;;;;4980529;28;20423;-77
2021/12/02 14:38:35;;;;;;;86.97;56.07;;;;;;;;;;4978363;28;21254;-77
2021/12/02 14:41:34;;;;;;;72.53;49.10;;;;;;;;;;4997869;28;20448;-77
2021/12/02 14:44:01;;;;;;;79.73;50.13;;;;;;;;;;4948890;28;20432;-77
2021/12/02 14:46:39;;;;;;;81.43;52.10;;;;;;;;;;5008289;28;20420;-77
2021/12/02 14:49:10;;;;;;;89.60;53.67;;;;;;;;;;4978683;28;21240;-77
2021/12/02 14:51:59;;;;;;;84.70;53.90;;;;;;;;;;4994681;28;21224;-77
2021/12/02 14:54:45;;;;;;;77.33;46.53;;;;;;;;;;4998825;28;20417;-78
2021/12/02 14:57:18;;;;;;;81.63;50.97;;;;;;;;;;4982329;28;20909;-78